createdAt,value
2018-02-27T00:00:52.278Z,55.60
2018-02-27T00:03:20.235Z,55.30
2018-02-27T00:05:48.160Z,55.20
2018-02-27T00:08:16.774Z,55.60
2018-02-27T00:10:45.827Z,55.60
2018-02-27T00:13:13.765Z,55.60
2018-02-27T00:15:42.573Z,55.80
2018-02-27T00:18:11.282Z,55.70
2018-02-27T00:20:39.807Z,55.80
2018-02-27T00:23:07.887Z,55.90
2018-02-27T00:25:35.745Z,56.00
2018-02-27T00:28:04.047Z,55.50
2018-02-27T00:30:32.037Z,55.50
2018-02-27T00:33:00.168Z,55.60
2018-02-27T00:35:27.860Z,55.60
2018-02-27T00:37:56.528Z,55.10
2018-02-27T00:40:24.377Z,55.00
2018-02-27T00:42:52.232Z,55.50
2018-02-27T00:45:20.357Z,56.00
2018-02-27T00:47:48.222Z,55.40
2018-02-27T00:50:16.657Z,55.50
2018-02-27T00:52:44.568Z,55.50
2018-02-27T00:55:12.436Z,55.30
2018-02-27T00:57:40.288Z,55.90
2018-02-27T01:00:08.276Z,55.30
2018-02-27T01:02:36.353Z,55.90
2018-02-27T01:05:04.192Z,55.70
2018-02-27T01:07:32.221Z,55.50
2018-02-27T01:10:00.943Z,55.40
2018-02-27T01:12:29.133Z,55.30
2018-02-27T01:14:57.222Z,55.50
2018-02-27T01:17:27.250Z,55.20
2018-02-27T01:19:56.316Z,55.60
2018-02-27T01:22:25.440Z,55.50
2018-02-27T01:24:53.570Z,55.90
2018-02-27T01:27:22.116Z,56.00
2018-02-27T01:29:50.959Z,55.50
2018-02-27T01:32:19.800Z,55.70
2018-02-27T01:34:48.075Z,55.40
2018-02-27T01:37:16.306Z,55.40
2018-02-27T01:39:44.266Z,55.50
2018-02-27T01:42:12.150Z,56.10
2018-02-27T01:44:40.827Z,56.30
2018-02-27T01:47:08.931Z,56.20
2018-02-27T01:49:37.996Z,56.30
2018-02-27T01:52:06.528Z,56.10
2018-02-27T01:54:35.300Z,56.00
2018-02-27T01:57:03.334Z,55.30
2018-02-27T01:59:32.492Z,55.50
2018-02-27T02:02:00.418Z,55.80
2018-02-27T02:04:28.312Z,55.50
2018-02-27T02:06:56.406Z,55.50
2018-02-27T02:09:24.528Z,55.90
2018-02-27T02:11:52.599Z,55.50
2018-02-27T02:14:21.671Z,55.50
2018-02-27T02:16:49.569Z,55.60
2018-02-27T02:19:17.532Z,55.70
2018-02-27T02:21:48.932Z,56.40
2018-02-27T02:24:18.467Z,56.30
2018-02-27T02:26:49.830Z,56.60
2018-02-27T02:29:19.551Z,56.60
2018-02-27T02:31:47.509Z,56.70
2018-02-27T02:34:15.649Z,56.50
2018-02-27T02:36:43.781Z,56.30
2018-02-27T02:39:11.748Z,56.20
2018-02-27T02:41:41.251Z,55.40
2018-02-27T02:44:10.053Z,55.00
2018-02-27T02:46:38.054Z,55.40
2018-02-27T02:49:06.296Z,56.70
2018-02-27T02:51:36.342Z,56.20
2018-02-27T02:54:07.207Z,56.60
2018-02-27T02:56:38.031Z,56.00
2018-02-27T02:59:07.903Z,56.10
2018-02-27T03:01:39.515Z,56.00
2018-02-27T03:04:09.808Z,56.20
2018-02-27T03:06:41.361Z,56.60
2018-02-27T03:09:10.709Z,56.00
2018-02-27T03:11:39.850Z,55.90
2018-02-27T03:14:09.332Z,55.90
2018-02-27T03:16:37.337Z,55.80
2018-02-27T03:19:05.468Z,55.80
2018-02-27T03:21:33.608Z,55.70
2018-02-27T03:24:01.607Z,55.70
2018-02-27T03:26:29.677Z,56.00
2018-02-27T03:28:57.906Z,56.30
2018-02-27T03:31:25.892Z,56.30
2018-02-27T03:33:53.870Z,56.40
2018-02-27T03:36:21.810Z,55.40
2018-02-27T03:38:50.584Z,56.10
2018-02-27T03:41:19.534Z,56.30
2018-02-27T03:43:47.516Z,56.20
2018-02-27T03:46:15.381Z,56.50
2018-02-27T03:48:43.559Z,56.60
2018-02-27T03:51:11.597Z,56.80
2018-02-27T03:53:39.665Z,57.30
2018-02-27T03:56:08.724Z,55.50
2018-02-27T03:58:36.741Z,55.40
2018-02-27T04:01:04.947Z,55.50
2018-02-27T04:03:33.155Z,55.90
2018-02-27T04:06:01.074Z,55.60
2018-02-27T04:08:29.329Z,55.40
2018-02-27T04:10:58.138Z,55.30
2018-02-27T04:13:26.211Z,55.70
2018-02-27T04:15:55.123Z,54.90
2018-02-27T04:18:23.242Z,54.80
2018-02-27T04:20:51.834Z,55.30
2018-02-27T04:23:20.787Z,55.50
2018-02-27T04:25:49.435Z,55.30
2018-02-27T04:28:17.374Z,55.20
2018-02-27T04:30:46.546Z,54.50
2018-02-27T04:33:14.738Z,54.40
2018-02-27T04:35:42.715Z,54.80
2018-02-27T04:38:11.810Z,55.60
2018-02-27T04:40:40.980Z,55.30
2018-02-27T04:43:15.620Z,55.60
2018-02-27T04:45:44.538Z,56.60
2018-02-27T04:48:14.100Z,57.80
2018-02-27T04:50:45.729Z,59.00
2018-02-27T04:53:13.739Z,58.50
2018-02-27T04:55:45.064Z,57.80
2018-02-27T04:58:13.385Z,55.90
2018-02-27T05:00:42.501Z,55.40
2018-02-27T05:03:10.328Z,55.10
2018-02-27T05:05:39.046Z,55.30
2018-02-27T05:08:07.328Z,55.40
2018-02-27T05:10:35.370Z,54.70
2018-02-27T05:13:04.356Z,55.10
2018-02-27T05:15:32.310Z,56.10
2018-02-27T05:18:01.641Z,56.70
2018-02-27T05:20:29.714Z,57.10
2018-02-27T05:22:57.725Z,57.40
2018-02-27T05:25:25.846Z,57.50
2018-02-27T05:27:54.040Z,58.00
2018-02-27T05:30:22.358Z,58.10
2018-02-27T05:32:50.452Z,58.50
2018-02-27T05:35:18.652Z,58.50
2018-02-27T05:37:48.074Z,57.90
2018-02-27T05:40:16.032Z,58.00
2018-02-27T05:42:44.126Z,58.20
2018-02-27T05:45:12.210Z,58.30
2018-02-27T05:47:41.320Z,58.00
2018-02-27T05:50:11.401Z,58.30
2018-02-27T05:52:39.518Z,58.30
2018-02-27T05:55:07.962Z,57.60
2018-02-27T05:57:36.166Z,57.70
2018-02-27T06:00:04.439Z,57.10
2018-02-27T06:02:32.855Z,56.00
2018-02-27T06:05:00.852Z,56.00
2018-02-27T06:07:31.866Z,57.70
2018-02-27T06:10:02.682Z,57.60
2018-02-27T06:12:31.629Z,57.70
2018-02-27T06:15:00.141Z,58.00
2018-02-27T06:17:31.946Z,58.00
2018-02-27T06:20:03.201Z,57.80
2018-02-27T06:22:31.145Z,57.70
2018-02-27T06:24:59.142Z,56.90
2018-02-27T06:27:27.224Z,56.70
2018-02-27T06:29:55.470Z,57.10
2018-02-27T06:32:23.428Z,56.90
2018-02-27T06:34:52.423Z,56.60
2018-02-27T06:37:20.917Z,56.50
2018-02-27T06:39:49.022Z,56.70
2018-02-27T06:42:18.236Z,56.50
2018-02-27T06:44:46.178Z,56.60
2018-02-27T06:47:14.033Z,56.90
2018-02-27T06:49:42.153Z,56.60
2018-02-27T06:52:11.130Z,57.80
2018-02-27T06:54:39.809Z,60.00
2018-02-27T06:57:09.256Z,62.80
2018-02-27T06:59:37.077Z,64.00
2018-02-27T07:02:05.812Z,64.00
2018-02-27T07:04:34.440Z,64.30
2018-02-27T07:07:02.407Z,63.10
2018-02-27T07:09:31.561Z,62.80
2018-02-27T07:12:00.467Z,61.00
2018-02-27T07:14:28.466Z,61.00
2018-02-27T07:16:56.723Z,60.50
2018-02-27T07:19:24.673Z,61.80
2018-02-27T07:21:53.648Z,61.30
2018-02-27T07:24:22.996Z,61.10
2018-02-27T07:26:51.039Z,60.80
2018-02-27T07:29:19.113Z,62.00
2018-02-27T07:31:47.109Z,62.40
2018-02-27T07:34:15.676Z,62.40
2018-02-27T07:36:46.050Z,63.30
2018-02-27T07:39:15.224Z,64.40
2018-02-27T07:41:43.584Z,64.80
2018-02-27T07:44:12.688Z,64.30
2018-02-27T07:46:40.690Z,63.10
2018-02-27T07:49:10.603Z,61.70
2018-02-27T07:51:38.802Z,61.70
2018-02-27T07:54:07.896Z,62.30
2018-02-27T07:56:35.862Z,63.80
2018-02-27T07:59:03.915Z,64.60
2018-02-27T08:01:31.755Z,63.50
2018-02-27T08:03:59.578Z,64.10
2018-02-27T08:06:27.182Z,66.50
2018-02-27T08:08:54.873Z,67.10
2018-02-27T08:11:22.494Z,65.10
2018-02-27T08:13:50.257Z,60.90
2018-02-27T08:16:17.938Z,58.10
2018-02-27T08:18:45.526Z,56.30
2018-02-27T08:21:14.874Z,55.40
2018-02-27T08:23:42.601Z,54.70
2018-02-27T08:26:10.248Z,54.60
2018-02-27T08:28:39.155Z,55.40
2018-02-27T08:31:06.872Z,56.10
2018-02-27T08:33:34.620Z,57.40
2018-02-27T08:36:02.362Z,58.50
2018-02-27T08:38:30.081Z,60.70
2018-02-27T08:40:57.778Z,62.40
2018-02-27T08:43:26.210Z,65.40
2018-02-27T08:45:53.882Z,65.30
2018-02-27T08:48:22.263Z,65.00
2018-02-27T08:50:50.689Z,65.40
2018-02-27T08:53:18.296Z,64.90
2018-02-27T08:55:46.028Z,60.40
2018-02-27T08:58:14.411Z,56.50
2018-02-27T09:00:42.597Z,56.50
2018-02-27T09:03:10.204Z,56.10
2018-02-27T09:05:37.844Z,56.20
2018-02-27T09:08:05.479Z,57.20
2018-02-27T09:10:33.129Z,55.80
2018-02-27T09:13:00.720Z,54.20
2018-02-27T09:15:28.382Z,55.10
2018-02-27T09:17:55.971Z,56.50
2018-02-27T09:20:23.690Z,56.10
2018-02-27T09:22:51.974Z,55.30
2018-02-27T09:25:19.644Z,55.20
2018-02-27T09:27:47.302Z,53.60
2018-02-27T09:30:14.972Z,53.90
2018-02-27T09:32:42.752Z,54.30
2018-02-27T09:35:11.272Z,52.30
2018-02-27T09:37:39.727Z,52.50
2018-02-27T09:40:07.333Z,52.30
2018-02-27T09:42:37.340Z,53.10
2018-02-27T09:45:04.892Z,54.10
2018-02-27T09:47:34.059Z,55.40
2018-02-27T09:50:01.710Z,56.60
2018-02-27T09:52:30.426Z,56.70
2018-02-27T09:54:58.027Z,56.20
2018-02-27T09:57:25.661Z,53.00
2018-02-27T09:59:53.209Z,52.80
2018-02-27T10:02:21.177Z,52.70
2018-02-27T10:04:48.825Z,53.00
2018-02-27T10:07:16.417Z,52.50
2018-02-27T10:09:44.790Z,49.90
2018-02-27T10:12:13.211Z,49.80
2018-02-27T10:14:40.869Z,49.70
2018-02-27T10:17:08.553Z,49.80
2018-02-27T10:19:36.093Z,50.10
2018-02-27T10:22:03.825Z,50.10
2018-02-27T10:24:32.211Z,48.20
2018-02-27T10:26:59.887Z,48.10
2018-02-27T10:29:27.641Z,47.40
2018-02-27T10:31:55.279Z,48.20
2018-02-27T10:34:23.999Z,49.20
2018-02-27T10:36:51.609Z,49.10
2018-02-27T10:39:19.178Z,49.10
2018-02-27T10:41:46.842Z,48.70
2018-02-27T10:44:15.693Z,48.30
2018-02-27T10:46:43.335Z,48.10
2018-02-27T10:49:10.915Z,47.00
2018-02-27T10:51:39.759Z,45.50
2018-02-27T10:54:07.387Z,44.60
2018-02-27T10:56:36.377Z,45.40
2018-02-27T10:59:04.125Z,46.20
2018-02-27T11:01:31.795Z,47.00
2018-02-27T11:03:59.453Z,46.90
2018-02-27T11:06:27.031Z,46.00
2018-02-27T11:08:54.639Z,45.90
2018-02-27T11:11:23.089Z,46.10
2018-02-27T11:13:50.699Z,44.80
2018-02-27T11:16:18.253Z,45.80
2018-02-27T11:18:45.869Z,46.00
2018-02-27T11:21:13.431Z,46.40
2018-02-27T11:23:42.739Z,45.40
2018-02-27T11:26:10.681Z,45.40
2018-02-27T11:28:38.376Z,46.30
2018-02-27T11:31:06.921Z,45.80
2018-02-27T11:33:34.706Z,45.70
2018-02-27T11:36:02.289Z,45.30
2018-02-27T11:38:30.752Z,47.00
2018-02-27T11:40:58.292Z,46.90
2018-02-27T11:43:26.029Z,47.70
2018-02-27T11:45:53.599Z,47.00
2018-02-27T11:48:21.359Z,47.10
2018-02-27T11:50:49.762Z,47.40
2018-02-27T11:53:17.340Z,46.70
2018-02-27T11:55:45.161Z,47.00
2018-02-27T11:58:12.794Z,47.10
2018-02-27T12:00:41.303Z,46.60
2018-02-27T12:03:08.881Z,45.60
2018-02-27T12:05:36.489Z,45.30
2018-02-27T12:08:04.063Z,45.20
2018-02-27T12:10:31.756Z,46.30
2018-02-27T12:12:59.358Z,47.50
2018-02-27T12:15:26.985Z,47.10
2018-02-27T12:17:54.558Z,46.70
2018-02-27T12:20:22.089Z,46.40
2018-02-27T12:22:49.725Z,46.90
2018-02-27T12:25:17.280Z,47.60
2018-02-27T12:27:44.998Z,48.00
2018-02-27T12:30:12.674Z,48.10
2018-02-27T12:32:40.320Z,47.10
2018-02-27T12:35:07.864Z,47.70
2018-02-27T12:37:36.633Z,48.90
2018-02-27T12:40:04.633Z,48.20
2018-02-27T12:42:32.181Z,47.50
2018-02-27T12:44:59.823Z,46.40
2018-02-27T12:47:27.430Z,47.30
2018-02-27T12:49:55.029Z,47.10
2018-02-27T12:52:22.639Z,46.80
2018-02-27T12:54:51.331Z,47.10
2018-02-27T12:57:19.769Z,48.10
2018-02-27T12:59:47.421Z,48.80
2018-02-27T13:02:15.036Z,49.70
2018-02-27T13:04:42.646Z,48.40
2018-02-27T13:07:10.260Z,47.80
2018-02-27T13:09:37.941Z,46.90
2018-02-27T13:12:06.328Z,45.10
2018-02-27T13:14:34.082Z,45.40
2018-02-27T13:17:03.644Z,46.10
2018-02-27T13:19:31.979Z,46.70
2018-02-27T13:21:59.581Z,46.70
2018-02-27T13:24:27.186Z,45.70
2018-02-27T13:26:54.743Z,45.70
2018-02-27T13:29:22.379Z,45.50
2018-02-27T13:31:49.935Z,46.20
2018-02-27T13:34:17.521Z,46.40
2018-02-27T13:36:45.082Z,47.50
2018-02-27T13:39:13.045Z,47.80
2018-02-27T13:41:40.673Z,46.30
2018-02-27T13:44:08.281Z,46.50
2018-02-27T13:46:36.702Z,46.70
2018-02-27T13:49:04.370Z,46.60
2018-02-27T13:51:31.884Z,46.40
2018-02-27T13:53:59.504Z,46.50
2018-02-27T13:56:27.098Z,45.90
2018-02-27T13:58:54.681Z,46.10
2018-02-27T14:01:22.808Z,45.50
2018-02-27T14:03:50.428Z,45.80
2018-02-27T14:06:17.982Z,46.80
2018-02-27T14:08:45.617Z,45.90
2018-02-27T14:11:14.113Z,46.20
2018-02-27T14:13:43.022Z,46.70
2018-02-27T14:16:10.633Z,46.00
2018-02-27T14:18:39.385Z,46.80
2018-02-27T14:21:07.031Z,46.40
2018-02-27T14:23:34.589Z,47.10
2018-02-27T14:26:02.157Z,46.00
2018-02-27T14:28:30.959Z,45.50
2018-02-27T14:30:58.522Z,47.10
2018-02-27T14:33:26.099Z,46.50
2018-02-27T14:35:53.666Z,47.70
2018-02-27T14:38:21.283Z,47.50
2018-02-27T14:40:48.908Z,47.30
2018-02-27T14:43:16.518Z,47.30
2018-02-27T14:45:44.059Z,47.90
2018-02-27T14:48:11.701Z,48.10
2018-02-27T14:50:39.267Z,48.50
2018-02-27T14:53:06.867Z,48.60
2018-02-27T14:55:34.546Z,48.60
2018-02-27T14:58:02.922Z,48.60
2018-02-27T15:00:30.446Z,48.60
2018-02-27T15:02:58.088Z,48.40
2018-02-27T15:05:25.639Z,49.00
2018-02-27T15:07:54.018Z,49.80
2018-02-27T15:10:21.580Z,49.80
2018-02-27T15:12:49.955Z,50.60
2018-02-27T15:15:17.557Z,50.60
2018-02-27T15:17:45.941Z,51.40
2018-02-27T15:20:14.635Z,51.10
2018-02-27T15:22:42.219Z,51.70
2018-02-27T15:25:09.812Z,51.80
2018-02-27T15:27:37.446Z,51.30
2018-02-27T15:30:04.958Z,51.40
2018-02-27T15:32:33.301Z,52.40
2018-02-27T15:35:01.668Z,52.70
2018-02-27T15:37:30.046Z,53.20
2018-02-27T15:39:57.587Z,53.20
2018-02-27T15:42:25.198Z,53.20
2018-02-27T15:44:52.729Z,53.50
2018-02-27T15:47:21.230Z,54.10
2018-02-27T15:49:48.876Z,54.10
2018-02-27T15:52:16.449Z,54.90
2018-02-27T15:54:44.044Z,54.40
2018-02-27T15:57:12.453Z,54.50
2018-02-27T15:59:39.989Z,54.90
2018-02-27T16:02:07.616Z,55.70
2018-02-27T16:04:36.351Z,56.50
2018-02-27T16:07:03.928Z,57.60
2018-02-27T16:09:32.234Z,58.60
2018-02-27T16:11:59.917Z,58.50
2018-02-27T16:14:27.529Z,58.80
2018-02-27T16:16:55.145Z,58.80
2018-02-27T16:19:22.741Z,58.40
2018-02-27T16:21:50.338Z,58.10
2018-02-27T16:24:17.929Z,58.10
2018-02-27T16:26:45.509Z,58.70
2018-02-27T16:29:13.116Z,59.10
2018-02-27T16:31:41.591Z,59.60
2018-02-27T16:34:10.201Z,61.00
2018-02-27T16:36:37.871Z,60.80
2018-02-27T16:39:05.466Z,61.10
2018-02-27T16:41:33.087Z,61.00
2018-02-27T16:44:00.726Z,61.60
2018-02-27T16:46:28.301Z,62.90
2018-02-27T16:48:55.859Z,63.20
2018-02-27T16:51:23.516Z,63.20
2018-02-27T16:53:51.077Z,63.30
2018-02-27T16:56:18.687Z,63.90
2018-02-27T16:58:46.262Z,63.90
2018-02-27T17:01:13.887Z,63.50
2018-02-27T17:03:41.451Z,63.90
2018-02-27T17:06:09.046Z,63.00
2018-02-27T17:08:38.211Z,62.80
2018-02-27T17:11:05.851Z,62.60
2018-02-27T17:13:33.377Z,62.00
2018-02-27T17:16:00.991Z,61.50
2018-02-27T17:18:28.533Z,59.60
2018-02-27T17:20:56.111Z,58.10
2018-02-27T17:23:23.732Z,56.20
2018-02-27T17:25:52.097Z,55.60
2018-02-27T17:28:19.701Z,55.50
2018-02-27T17:30:47.285Z,54.80
2018-02-27T17:33:14.847Z,55.10
2018-02-27T17:35:42.449Z,55.40
2018-02-27T17:38:10.034Z,56.00
2018-02-27T17:40:37.633Z,56.50
2018-02-27T17:43:05.198Z,56.70
2018-02-27T17:45:32.795Z,56.70
2018-02-27T17:48:00.364Z,57.10
2018-02-27T17:50:27.958Z,57.20
2018-02-27T17:52:55.494Z,56.90
2018-02-27T17:55:23.078Z,56.30
2018-02-27T17:57:50.655Z,56.30
2018-02-27T18:00:18.249Z,56.40
2018-02-27T18:02:46.579Z,56.40
2018-02-27T18:05:14.214Z,56.40
2018-02-27T18:07:41.786Z,56.60
2018-02-27T18:10:11.677Z,56.60
2018-02-27T18:12:39.268Z,57.40
2018-02-27T18:15:06.860Z,56.80
2018-02-27T18:17:34.455Z,56.60
2018-02-27T18:20:02.342Z,56.70
2018-02-27T18:22:29.924Z,57.00
2018-02-27T18:24:57.526Z,57.30
2018-02-27T18:27:25.127Z,57.60
2018-02-27T18:29:52.713Z,57.80
2018-02-27T18:32:20.317Z,58.30
2018-02-27T18:34:47.891Z,58.50
2018-02-27T18:37:16.283Z,58.50
2018-02-27T18:39:43.903Z,59.20
2018-02-27T18:42:12.239Z,60.40
2018-02-27T18:44:41.025Z,60.30
2018-02-27T18:47:08.573Z,61.20
2018-02-27T18:49:36.184Z,61.50
2018-02-27T18:52:05.343Z,62.30
2018-02-27T18:54:32.930Z,62.30
2018-02-27T18:57:00.510Z,63.10
2018-02-27T18:59:28.853Z,64.60
2018-02-27T19:01:56.498Z,64.50
2018-02-27T19:04:24.053Z,64.90
2018-02-27T19:06:51.652Z,64.30
2018-02-27T19:09:20.031Z,63.30
2018-02-27T19:11:47.737Z,63.30
2018-02-27T19:14:16.480Z,63.20
2018-02-27T19:16:44.124Z,62.30
2018-02-27T19:19:11.755Z,62.00
2018-02-27T19:21:39.417Z,61.40
2018-02-27T19:24:07.100Z,60.50
2018-02-27T19:26:35.329Z,60.30
2018-02-27T19:29:05.541Z,59.50
2018-02-27T19:31:33.966Z,59.60
2018-02-27T19:34:01.988Z,59.60
2018-02-27T19:36:29.556Z,59.80
2018-02-27T19:38:58.108Z,59.80
2018-02-27T19:41:25.781Z,59.70
2018-02-27T19:43:53.509Z,59.80
2018-02-27T19:46:21.266Z,60.10
2018-02-27T19:48:48.909Z,60.30
2018-02-27T19:51:17.684Z,60.00
2018-02-27T19:53:45.561Z,60.50
2018-02-27T19:56:15.212Z,60.10
2018-02-27T19:58:44.398Z,60.30
2018-02-27T20:01:12.966Z,60.30
2018-02-27T20:03:40.809Z,60.20
2018-02-27T20:06:08.391Z,60.40
2018-02-27T20:08:36.266Z,60.40
2018-02-27T20:11:03.952Z,60.50
2018-02-27T20:13:32.519Z,60.30
2018-02-27T20:16:00.277Z,60.10
2018-02-27T20:18:28.097Z,60.20
2018-02-27T20:20:55.742Z,59.80
2018-02-27T20:23:29.938Z,60.20
2018-02-27T20:25:58.199Z,60.20
2018-02-27T20:28:32.503Z,60.90
2018-02-27T20:31:00.157Z,60.20
2018-02-27T20:33:27.947Z,60.70
2018-02-27T20:35:55.574Z,60.30
2018-02-27T20:38:29.433Z,60.40
2018-02-27T20:40:57.001Z,60.20
2018-02-27T20:43:24.643Z,59.80
2018-02-27T20:45:52.351Z,59.80
2018-02-27T20:48:20.078Z,59.70
2018-02-27T20:50:48.894Z,60.40
2018-02-27T20:53:17.271Z,61.20
2018-02-27T20:55:45.968Z,61.00
2018-02-27T20:58:14.565Z,62.40
2018-02-27T21:00:42.255Z,62.40
2018-02-27T21:03:09.831Z,62.50
2018-02-27T21:05:37.753Z,63.20
2018-02-27T21:08:05.409Z,63.00
2018-02-27T21:10:33.551Z,62.80
2018-02-27T21:13:01.486Z,63.50
2018-02-27T21:15:30.417Z,63.40
2018-02-27T21:18:00.244Z,64.70
2018-02-27T21:20:29.109Z,66.10
2018-02-27T21:22:56.686Z,65.90
2018-02-27T21:25:26.054Z,66.10
2018-02-27T21:27:54.116Z,65.90
2018-02-27T21:30:21.879Z,65.70
2018-02-27T21:32:49.643Z,65.00
2018-02-27T21:35:18.579Z,64.80
2018-02-27T21:37:47.607Z,64.30
2018-02-27T21:40:15.501Z,65.30
2018-02-27T21:42:43.211Z,66.90
2018-02-27T21:45:10.847Z,68.60
2018-02-27T21:47:39.238Z,70.10
2018-02-27T21:50:06.899Z,69.50
2018-02-27T21:52:34.756Z,69.00
2018-02-27T21:55:02.437Z,69.20
2018-02-27T21:57:31.530Z,68.00
2018-02-27T22:00:00.752Z,67.90
2018-02-27T22:02:28.406Z,67.90
2018-02-27T22:04:56.865Z,68.30
2018-02-27T22:07:24.492Z,68.10
2018-02-27T22:09:53.489Z,67.80
2018-02-27T22:12:22.057Z,67.80
2018-02-27T22:14:49.636Z,67.40
2018-02-27T22:17:18.217Z,67.10
2018-02-27T22:19:46.647Z,67.10
2018-02-27T22:22:15.216Z,66.90
2018-02-27T22:24:44.831Z,66.10
2018-02-27T22:27:12.573Z,66.10
2018-02-27T22:29:42.207Z,65.10
2018-02-27T22:32:09.837Z,64.20
2018-02-27T22:34:37.557Z,61.70
2018-02-27T22:37:05.371Z,60.10
2018-02-27T22:39:33.002Z,59.70
2018-02-27T22:42:00.842Z,59.60
2018-02-27T22:44:28.468Z,59.90
2018-02-27T22:46:56.122Z,60.40
2018-02-27T22:49:23.847Z,61.10
2018-02-27T22:51:51.692Z,61.60
2018-02-27T22:54:20.053Z,62.20
2018-02-27T22:56:47.763Z,62.60
2018-02-27T22:59:15.548Z,62.10
2018-02-27T23:01:43.271Z,62.50
2018-02-27T23:04:11.115Z,61.90
2018-02-27T23:06:38.876Z,61.50
2018-02-27T23:09:06.549Z,60.60
2018-02-27T23:11:34.328Z,59.90
2018-02-27T23:14:03.177Z,60.00
2018-02-27T23:16:31.747Z,59.40
2018-02-27T23:18:59.523Z,59.40
2018-02-27T23:21:28.147Z,59.60
2018-02-27T23:23:58.941Z,59.30
2018-02-27T23:26:33.039Z,59.30
2018-02-27T23:29:03.208Z,59.50
2018-02-27T23:31:34.014Z,59.40
2018-02-27T23:34:09.270Z,59.30
2018-02-27T23:36:38.380Z,58.90
2018-02-27T23:39:07.670Z,58.90
2018-02-27T23:41:35.252Z,58.80
2018-02-27T23:44:02.870Z,58.60
2018-02-27T23:46:31.311Z,58.80
2018-02-27T23:48:58.967Z,58.40
2018-02-27T23:51:26.525Z,57.90
2018-02-27T23:53:54.470Z,58.40
2018-02-27T23:56:22.036Z,57.90
2018-02-27T23:58:49.857Z,57.70
